createdAt,value
2019-05-02T00:00:32.082Z,8.9
2019-05-02T00:01:22.200Z,8.9
2019-05-02T00:02:12.202Z,8.9
2019-05-02T00:03:06.819Z,8.9
2019-05-02T00:03:51.780Z,8.9
2019-05-02T00:04:42.388Z,8.9
2019-05-02T00:05:34.022Z,8.9
2019-05-02T00:06:22.568Z,8.9
2019-05-02T00:07:22.405Z,8.9
2019-05-02T00:08:02.366Z,8.9
2019-05-02T00:08:52.710Z,8.9
2019-05-02T00:09:51.366Z,8.8
2019-05-02T00:10:32.835Z,8.9
2019-05-02T00:11:22.890Z,8.9
2019-05-02T00:12:12.965Z,8.9
2019-05-02T00:13:03.015Z,8.8
2019-05-02T00:13:52.786Z,8.9
2019-05-02T00:14:43.139Z,8.8
2019-05-02T00:15:40.002Z,8.8
2019-05-02T00:16:23.254Z,8.8
2019-05-02T00:17:13.077Z,8.9
2019-05-02T00:18:03.917Z,8.8
2019-05-02T00:18:53.170Z,8.8
2019-05-02T00:19:51.802Z,8.8
2019-05-02T00:20:33.574Z,8.8
2019-05-02T00:21:23.635Z,8.8
2019-05-02T00:22:19.517Z,8.8
2019-05-02T00:23:03.511Z,8.8
2019-05-02T00:23:53.821Z,8.8
2019-05-02T00:24:43.600Z,8.8
2019-05-02T00:25:33.949Z,8.8
2019-05-02T00:26:26.855Z,8.8
2019-05-02T00:27:14.053Z,8.8
2019-05-02T00:28:07.669Z,8.8
2019-05-02T00:28:53.628Z,8.8
2019-05-02T00:29:44.287Z,8.8
2019-05-02T00:30:37.261Z,8.8
2019-05-02T00:31:24.110Z,8.8
2019-05-02T00:32:23.643Z,8.8
2019-05-02T00:33:54.570Z,8.8
2019-05-02T00:34:44.625Z,8.8
2019-05-02T00:35:34.686Z,8.8
2019-05-02T00:36:24.466Z,8.8
2019-05-02T00:37:24.418Z,8.8
2019-05-02T00:38:54.653Z,8.8
2019-05-02T00:39:51.093Z,8.8
2019-05-02T00:40:35.053Z,8.8
2019-05-02T00:41:25.129Z,8.8
2019-05-02T00:42:24.638Z,8.8
2019-05-02T00:43:55.305Z,8.8
2019-05-02T00:44:49.036Z,8.8
2019-05-02T00:45:35.433Z,8.8
2019-05-02T00:46:25.487Z,8.8
2019-05-02T00:47:15.545Z,8.8
2019-05-02T00:48:05.341Z,8.8
2019-05-02T00:49:02.910Z,8.8
2019-05-02T00:49:45.727Z,8.8
2019-05-02T00:50:35.812Z,8.8
2019-05-02T00:51:28.862Z,8.8
2019-05-02T00:52:15.640Z,8.8
2019-05-02T00:53:14.039Z,8.8
2019-05-02T00:54:46.108Z,8.7
2019-05-02T00:55:37.040Z,8.7
2019-05-02T00:56:25.969Z,8.7
2019-05-02T00:57:22.787Z,8.7
2019-05-02T00:58:06.102Z,8.7
2019-05-02T00:58:56.429Z,8.7
2019-05-02T00:59:46.232Z,8.7
2019-05-02T01:00:36.015Z,8.7
2019-05-02T01:01:32.117Z,8.7
2019-05-02T01:02:16.657Z,8.7
2019-05-02T01:03:10.984Z,8.7
2019-05-02T01:04:46.849Z,8.7
2019-05-02T01:05:41.276Z,8.7
2019-05-02T01:06:26.967Z,8.7
2019-05-02T01:07:26.891Z,8.6
2019-05-02T01:08:56.879Z,8.7
2019-05-02T01:09:48.756Z,8.7
2019-05-02T01:10:37.276Z,8.6
2019-05-02T01:11:34.259Z,8.7
2019-05-02T01:12:27.997Z,8.7
2019-05-02T01:13:59.237Z,8.7
2019-05-02T01:14:47.624Z,8.7
2019-05-02T01:15:46.490Z,8.7
2019-05-02T01:17:17.518Z,8.7
2019-05-02T01:18:08.916Z,8.6
2019-05-02T01:18:57.928Z,8.7
2019-05-02T01:19:53.235Z,8.6
2019-05-02T01:20:38.028Z,8.6
2019-05-02T01:21:27.533Z,8.6
2019-05-02T01:22:18.775Z,8.7
2019-05-02T01:23:07.951Z,8.6
2019-05-02T01:24:04.944Z,8.6
2019-05-02T01:25:38.393Z,8.6
2019-05-02T01:26:31.604Z,8.7
2019-05-02T01:27:18.523Z,8.6
2019-05-02T01:28:18.827Z,8.6
2019-05-02T01:29:48.446Z,8.6
2019-05-02T01:30:44.645Z,8.6
2019-05-02T01:32:18.896Z,8.6
2019-05-02T01:33:08.985Z,8.6
2019-05-02T01:33:59.015Z,8.6
2019-05-02T01:34:56.950Z,8.6
2019-05-02T01:36:29.194Z,8.6
2019-05-02T01:37:22.727Z,8.6
2019-05-02T01:38:09.327Z,8.6
2019-05-02T01:39:08.701Z,8.6
2019-05-02T01:39:49.457Z,8.6
2019-05-02T01:40:39.272Z,8.6
2019-05-02T01:41:32.089Z,8.6
2019-05-02T01:42:19.117Z,8.6
2019-05-02T01:43:09.425Z,8.6
2019-05-02T01:44:02.654Z,8.6
2019-05-02T01:44:48.992Z,8.6
2019-05-02T01:45:48.009Z,8.6
2019-05-02T01:46:29.672Z,8.6
2019-05-02T01:47:20.019Z,8.6
2019-05-02T01:48:12.022Z,8.6
2019-05-02T01:49:00.149Z,8.6
2019-05-02T01:49:59.776Z,8.6
2019-05-02T01:50:40.257Z,8.6
2019-05-02T01:51:30.049Z,8.6
2019-05-02T01:52:26.030Z,8.6
2019-05-02T01:53:10.449Z,8.5
2019-05-02T01:54:00.242Z,8.6
2019-05-02T01:54:50.561Z,8.6
2019-05-02T01:55:40.354Z,8.6
2019-05-02T01:56:35.913Z,8.6
2019-05-02T01:57:20.747Z,8.5
2019-05-02T01:58:10.603Z,8.6
2019-05-02T01:59:00.894Z,8.5
2019-05-02T01:59:50.384Z,8.5
2019-05-02T02:00:46.691Z,8.5
2019-05-02T02:01:30.788Z,8.5
2019-05-02T02:02:20.853Z,8.5
2019-05-02T02:03:11.678Z,8.5
2019-05-02T02:04:01.255Z,8.5
2019-05-02T02:04:58.596Z,8.5
2019-05-02T02:05:41.390Z,8.5
2019-05-02T02:06:31.155Z,8.5
2019-05-02T02:07:22.707Z,8.5
2019-05-02T02:08:11.003Z,8.5
2019-05-02T02:09:10.466Z,8.5
2019-05-02T02:09:51.685Z,8.5
2019-05-02T02:10:44.925Z,8.5
2019-05-02T02:11:36.863Z,8.5
2019-05-02T02:12:21.867Z,8.5
2019-05-02T02:13:11.923Z,8.5
2019-05-02T02:14:01.743Z,8.5
2019-05-02T02:14:56.566Z,8.5
2019-05-02T02:15:42.128Z,8.5
2019-05-02T02:16:41.099Z,8.5
2019-05-02T02:17:21.962Z,8.5
2019-05-02T02:18:11.763Z,8.5
2019-05-02T02:19:06.187Z,8.5
2019-05-02T02:19:52.152Z,8.5
2019-05-02T02:20:50.797Z,8.5
2019-05-02T02:21:32.279Z,8.5
2019-05-02T02:22:22.605Z,8.4
2019-05-02T02:23:15.999Z,8.5
2019-05-02T02:24:02.747Z,8.5
2019-05-02T02:25:03.448Z,8.4
2019-05-02T02:26:32.917Z,8.5
2019-05-02T02:27:26.832Z,8.4
2019-05-02T02:28:12.777Z,8.4
2019-05-02T02:29:09.619Z,8.4
2019-05-02T02:29:52.910Z,8.4
2019-05-02T02:30:42.985Z,8.4
2019-05-02T02:31:46.249Z,8.4
2019-05-02T02:32:29.960Z,8.4
2019-05-02T02:33:13.438Z,8.4
2019-05-02T02:34:03.215Z,8.4
2019-05-02T02:34:53.552Z,8.4
2019-05-02T02:35:53.129Z,8.4
2019-05-02T02:37:23.471Z,8.4
2019-05-02T02:38:13.253Z,8.4
2019-05-02T02:39:17.659Z,8.4
2019-05-02T02:40:43.999Z,8.4
2019-05-02T02:41:33.768Z,8.4
2019-05-02T02:42:34.726Z,8.4
2019-05-02T02:43:35.959Z,8.4
2019-05-02T02:44:54.327Z,8.4
2019-05-02T02:45:44.067Z,8.4
2019-05-02T02:46:41.171Z,8.4
2019-05-02T02:47:24.474Z,8.4
2019-05-02T02:48:14.291Z,8.4
2019-05-02T02:49:05.019Z,8.4
2019-05-02T02:50:06.162Z,8.4
2019-05-02T02:51:34.797Z,8.4
2019-05-02T02:52:24.873Z,8.4
2019-05-02T02:53:26.031Z,8.4
2019-05-02T02:54:54.771Z,8.4
2019-05-02T02:55:44.817Z,8.4
2019-05-02T02:56:43.398Z,8.4
2019-05-02T02:57:29.231Z,8.4
2019-05-02T02:58:15.055Z,8.4
2019-05-02T02:59:05.117Z,8.4
2019-05-02T03:00:11.740Z,8.4
2019-05-02T03:00:50.387Z,8.4
2019-05-02T03:01:35.534Z,8.4
2019-05-02T03:02:25.608Z,8.4
2019-05-02T03:03:27.720Z,8.4
2019-05-02T03:06:47.958Z,8.3
2019-05-02T03:09:12.180Z,8.3
2019-05-02T03:10:09.282Z,8.3
2019-05-02T03:10:52.303Z,8.3
2019-05-02T03:11:42.052Z,8.3
2019-05-02T03:12:47.044Z,8.3
2019-05-02T03:14:12.238Z,8.3
2019-05-02T03:15:02.679Z,8.3
2019-05-02T03:15:52.380Z,8.3
2019-05-02T03:16:50.476Z,8.3
2019-05-02T03:17:32.230Z,8.3
2019-05-02T03:18:22.279Z,8.3
2019-05-02T03:19:24.317Z,8.3
2019-05-02T03:20:05.041Z,8.3
2019-05-02T03:20:52.441Z,8.3
2019-05-02T03:22:44.315Z,8.3
2019-05-02T03:23:25.494Z,8.3
2019-05-02T03:24:13.495Z,8.3
2019-05-02T03:25:03.395Z,8.3
2019-05-02T03:25:53.111Z,8.3
2019-05-02T03:26:55.060Z,8.3
2019-05-02T03:27:41.488Z,8.3
2019-05-02T03:30:53.800Z,8.3
2019-05-02T03:31:44.070Z,8.3
2019-05-02T03:32:37.884Z,8.3
2019-05-02T03:33:23.457Z,8.3
2019-05-02T03:34:14.044Z,8.3
2019-05-02T03:35:04.197Z,8.3
2019-05-02T03:35:53.894Z,8.3
2019-05-02T03:36:43.707Z,8.3
2019-05-02T03:38:36.194Z,8.3
2019-05-02T03:40:04.458Z,8.3
2019-05-02T03:42:48.861Z,8.3
2019-05-02T03:44:27.675Z,8.3
2019-05-02T03:45:54.897Z,8.3
2019-05-02T03:46:45.192Z,8.3
2019-05-02T03:47:47.106Z,8.3
2019-05-02T03:50:09.947Z,8.3
2019-05-02T03:50:55.257Z,8.3
2019-05-02T03:51:45.293Z,8.3
2019-05-02T03:52:47.115Z,8.3
2019-05-02T03:54:19.557Z,8.3
2019-05-02T03:55:55.408Z,8.3
2019-05-02T03:56:54.286Z,8.4
2019-05-02T03:57:42.517Z,8.4
2019-05-02T03:59:15.589Z,8.4
2019-05-02T04:00:05.664Z,8.4
2019-05-02T04:01:04.673Z,8.4
2019-05-02T04:01:45.801Z,8.4
2019-05-02T04:02:35.817Z,8.4
2019-05-02T04:03:26.126Z,8.4
2019-05-02T04:04:23.798Z,8.4
2019-05-02T04:05:20.689Z,8.5
2019-05-02T04:06:46.408Z,8.5
2019-05-02T04:07:43.575Z,8.5
2019-05-02T04:08:26.273Z,8.6
2019-05-02T04:09:16.353Z,8.6
2019-05-02T04:10:06.670Z,8.6
2019-05-02T04:11:02.880Z,8.6
2019-05-02T04:11:46.487Z,8.6
2019-05-02T04:13:38.742Z,8.6
2019-05-02T04:14:40.005Z,8.7
2019-05-02T04:16:58.257Z,8.8
2019-05-02T04:18:27.510Z,8.8
2019-05-02T04:19:17.368Z,8.8
2019-05-02T04:20:13.564Z,8.9
2019-05-02T04:22:11.288Z,8.9
2019-05-02T04:23:30.662Z,9
2019-05-02T04:24:17.550Z,9
2019-05-02T04:25:08.125Z,9
2019-05-02T04:25:57.836Z,9.1
2019-05-02T04:26:57.487Z,9.1
2019-05-02T04:28:28.035Z,9.1
2019-05-02T04:29:18.068Z,9.2
2019-05-02T04:30:22.532Z,9.2
2019-05-02T04:32:42.637Z,9.3
2019-05-02T04:34:30.221Z,9.4
2019-05-02T04:35:19.474Z,9.4
2019-05-02T04:36:19.129Z,9.4
2019-05-02T04:37:04.877Z,9.5
2019-05-02T04:37:50.204Z,9.5
2019-05-02T04:38:53.535Z,9.5
2019-05-02T04:40:20.709Z,9.6
2019-05-02T04:41:30.574Z,9.6
2019-05-02T04:42:23.706Z,9.7
2019-05-02T04:43:11.873Z,9.8
2019-05-02T04:45:32.230Z,9.8
2019-05-02T04:47:28.746Z,9.9
2019-05-02T04:48:18.857Z,10
2019-05-02T04:49:57.948Z,10.1
2019-05-02T04:50:51.965Z,10.1
2019-05-02T04:52:53.715Z,10.2
2019-05-02T04:55:33.533Z,10.3
2019-05-02T04:56:04.253Z,10.4
2019-05-02T04:56:58.950Z,10.5
2019-05-02T04:57:39.097Z,10.6
2019-05-02T04:58:40.939Z,10.6
2019-05-02T05:00:12.720Z,10.7
2019-05-02T05:01:02.637Z,10.8
2019-05-02T05:02:01.795Z,10.8
2019-05-02T05:04:09.336Z,10.9
2019-05-02T05:04:59.353Z,11
2019-05-02T05:05:49.574Z,11
2019-05-02T05:07:01.694Z,11.1
2019-05-02T05:07:49.802Z,11.2
2019-05-02T05:09:18.525Z,11.3
2019-05-02T05:10:04.474Z,11.3
2019-05-02T05:10:49.390Z,11.4
2019-05-02T05:11:39.314Z,11.4
2019-05-02T05:12:41.882Z,11.4
2019-05-02T05:14:11.087Z,11.6
2019-05-02T05:15:01.544Z,11.6
2019-05-02T05:15:53.146Z,11.6
2019-05-02T05:16:55.421Z,11.7
2019-05-02T05:18:18.904Z,11.8
2019-05-02T05:19:09.160Z,11.9
2019-05-02T05:20:18.193Z,11.9
2019-05-02T05:21:38.629Z,12.1
2019-05-02T05:22:29.862Z,12.1
2019-05-02T05:24:59.746Z,12.3
2019-05-02T05:26:04.793Z,12.3
2019-05-02T05:27:29.001Z,12.5
2019-05-02T05:28:21.413Z,12.6
2019-05-02T05:30:18.605Z,12.8
2019-05-02T05:31:39.749Z,13.1
2019-05-02T05:33:20.059Z,13.4
2019-05-02T05:34:11.354Z,13.6
2019-05-02T05:35:13.218Z,13.8
2019-05-02T05:36:39.129Z,14.3
2019-05-02T05:37:30.996Z,14.4
2019-05-02T05:38:32.727Z,14.8
2019-05-02T05:41:53.134Z,15.9
2019-05-02T05:43:21.806Z,16.4
2019-05-02T05:45:14.673Z,17.1
2019-05-02T05:47:44.033Z,15.6
2019-05-02T05:48:41.798Z,13.1
2019-05-02T05:50:13.996Z,21.9
2019-05-02T05:51:03.831Z,22.5
2019-05-02T05:52:04.715Z,24.8
2019-05-02T05:53:34.036Z,28.1
2019-05-02T05:55:25.110Z,26.8
2019-05-02T05:56:54.252Z,25.8
2019-05-02T05:57:44.357Z,26.1
2019-05-02T05:58:34.397Z,26.5
2019-05-02T06:00:23.980Z,27.4
2019-05-02T06:01:10.867Z,27.7
2019-05-02T06:04:41.577Z,27.9
2019-05-02T06:05:42.832Z,28.1
2019-05-02T06:06:27.243Z,28.3
2019-05-02T06:07:11.754Z,28.4
2019-05-02T06:08:01.835Z,28.6
2019-05-02T06:08:56.462Z,28.8
2019-05-02T06:09:41.932Z,28.9
2019-05-02T06:10:32.254Z,29
2019-05-02T06:11:23.307Z,29.1
2019-05-02T06:12:12.379Z,29.3
2019-05-02T06:13:13.480Z,29.4
2019-05-02T06:13:52.522Z,29.6
2019-05-02T06:14:42.574Z,29.8
2019-05-02T06:15:41.075Z,29.9
2019-05-02T06:16:22.696Z,30.1
2019-05-02T06:17:12.757Z,30.2
2019-05-02T06:18:07.248Z,30.3
2019-05-02T06:18:52.875Z,30.5
2019-05-02T06:19:42.966Z,30.6
2019-05-02T06:20:33.464Z,30.7
2019-05-02T06:21:22.788Z,30.8
2019-05-02T06:22:25.874Z,31
2019-05-02T06:23:52.973Z,31.3
2019-05-02T06:24:52.683Z,31.4
2019-05-02T06:25:37.979Z,31.6
2019-05-02T06:26:23.433Z,31.7
2019-05-02T06:27:13.486Z,31.8
2019-05-02T06:28:07.906Z,32
2019-05-02T06:28:53.613Z,32.1
2019-05-02T06:29:43.688Z,32.3
2019-05-02T06:30:33.626Z,32.4
2019-05-02T06:31:23.800Z,32.6
2019-05-02T06:32:21.225Z,32.8
2019-05-02T06:33:03.657Z,32.9
2019-05-02T06:34:48.625Z,33.1
2019-05-02T06:35:33.827Z,33.3
2019-05-02T06:36:24.178Z,33.4
2019-05-02T06:37:16.485Z,33.6
2019-05-02T06:38:04.300Z,33.7
2019-05-02T06:38:58.925Z,33.8
2019-05-02T06:40:34.224Z,34.1
2019-05-02T06:41:24.539Z,34.3
2019-05-02T06:42:14.042Z,34.4
2019-05-02T06:43:11.957Z,34.6
2019-05-02T06:43:54.722Z,34.8
2019-05-02T06:44:44.787Z,34.9
2019-05-02T06:45:40.705Z,35.1
2019-05-02T06:46:30.742Z,35.2
2019-05-02T06:47:14.423Z,35.3
2019-05-02T06:48:04.804Z,35.4
2019-05-02T06:48:55.220Z,35.6
2019-05-02T06:49:45.149Z,35.8
2019-05-02T06:50:41.422Z,35.9
2019-05-02T06:51:25.291Z,36.1
2019-05-02T06:52:15.119Z,36.2
2019-05-02T06:53:11.840Z,36.3
2019-05-02T06:53:55.467Z,36.5
2019-05-02T06:54:45.519Z,36.6
2019-05-02T06:55:39.499Z,36.8
2019-05-02T06:56:25.643Z,36.9
2019-05-02T06:57:23.998Z,37.1
2019-05-02T06:58:55.819Z,37.4
2019-05-02T06:59:49.873Z,37.5
2019-05-02T07:00:59.649Z,37.8
2019-05-02T07:02:15.801Z,38
2019-05-02T07:04:41.276Z,38.4
2019-05-02T07:05:31.592Z,38.6
2019-05-02T07:06:22.497Z,38.7
2019-05-02T07:08:11.584Z,39
2019-05-02T07:09:43.790Z,39.3
2019-05-02T07:10:46.190Z,39.4
2019-05-02T07:12:17.663Z,39.8
2019-05-02T07:13:15.989Z,39.9
2019-05-02T07:14:45.489Z,40.2
2019-05-02T07:15:41.361Z,40.4
2019-05-02T07:16:39.736Z,40.5
2019-05-02T07:18:13.163Z,40.8
2019-05-02T07:18:52.861Z,41
2019-05-02T07:19:42.621Z,41.1
2019-05-02T07:20:43.041Z,41.3
2019-05-02T07:21:24.725Z,41.5
2019-05-02T07:22:13.078Z,41.6
2019-05-02T07:23:02.879Z,41.8
2019-05-02T07:23:56.214Z,41.9
2019-05-02T07:24:43.285Z,42.1
2019-05-02T07:25:32.776Z,42.3
2019-05-02T07:26:24.844Z,42.4
2019-05-02T07:27:13.473Z,42.6
2019-05-02T07:28:11.373Z,42.7
2019-05-02T07:30:37.051Z,43.2
2019-05-02T07:31:23.772Z,43.3
2019-05-02T07:32:13.553Z,43.5
2019-05-02T07:33:03.941Z,43.6
2019-05-02T07:33:53.958Z,43.8
2019-05-02T07:34:50.111Z,44
2019-05-02T07:35:33.800Z,44.2
2019-05-02T07:36:23.924Z,44.3
2019-05-02T07:37:14.686Z,44.4
2019-05-02T07:38:04.265Z,44.6
2019-05-02T07:39:07.085Z,44.8
2019-05-02T07:40:34.188Z,45.1
2019-05-02T07:41:30.823Z,45.2
2019-05-02T07:42:14.313Z,45.4
2019-05-02T07:43:04.360Z,45.5
2019-05-02T07:43:58.562Z,45.7
2019-05-02T07:44:44.500Z,45.8
2019-05-02T07:45:34.555Z,46
2019-05-02T07:46:24.608Z,46.1
2019-05-02T07:48:05.007Z,46.4
2019-05-02T07:48:57.662Z,46.6
2019-05-02T07:49:45.132Z,46.8
2019-05-02T07:50:35.190Z,46.9
2019-05-02T07:51:24.973Z,47
2019-05-02T07:52:15.320Z,47.2
2019-05-02T07:53:14.917Z,47.3
2019-05-02T07:54:45.550Z,47.6
2019-05-02T07:55:43.724Z,47.8
2019-05-02T07:56:25.334Z,47.9
2019-05-02T07:58:09.293Z,48.2
2019-05-02T07:59:45.581Z,48.4
2019-05-02T08:00:39.202Z,48.6
2019-05-02T08:01:25.754Z,48.8
2019-05-02T08:02:30.709Z,48.9
2019-05-02T08:03:55.676Z,49.2
2019-05-02T08:04:46.390Z,49.4
2019-05-02T08:05:36.021Z,49.5
2019-05-02T08:06:46.584Z,49.6
2019-05-02T08:08:06.207Z,49.9
2019-05-02T08:08:56.277Z,50.1
2019-05-02T08:09:46.806Z,50.2
2019-05-02T08:10:36.666Z,50.3
2019-05-02T08:11:26.456Z,50.4
2019-05-02T08:12:16.791Z,50.6
2019-05-02T08:13:06.318Z,50.8
2019-05-02T08:14:01.456Z,50.9
2019-05-02T08:14:46.430Z,51
2019-05-02T08:15:37.038Z,51.1
2019-05-02T08:16:29.438Z,51.2
2019-05-02T08:17:20.336Z,51.3
2019-05-02T08:18:06.703Z,51.4
2019-05-02T08:19:05.358Z,51.5
2019-05-02T08:20:37.410Z,51.6
2019-05-02T08:21:34.216Z,51.8
2019-05-02T08:23:07.314Z,52
2019-05-02T08:24:04.233Z,52.1
2019-05-02T08:24:47.730Z,52.3
2019-05-02T08:27:17.347Z,52.6
2019-05-02T08:28:18.628Z,52.7
2019-05-02T08:29:48.092Z,52.8
2019-05-02T08:30:42.900Z,52.9
2019-05-02T08:31:30.881Z,53.1
2019-05-02T08:32:18.281Z,53.2
2019-05-02T08:33:58.387Z,53.4
2019-05-02T08:34:54.538Z,53.5
2019-05-02T08:35:38.247Z,53.5
2019-05-02T08:36:28.304Z,53.6
2019-05-02T08:37:18.360Z,53.8
2019-05-02T08:39:48.842Z,54
2019-05-02T08:40:49.724Z,54.1
2019-05-02T08:42:18.737Z,54.3
2019-05-02T08:43:11.707Z,54.3
2019-05-02T08:43:58.854Z,54.1
2019-05-02T08:45:03.127Z,53.9
2019-05-02T08:45:40.623Z,53.7
2019-05-02T08:46:29.332Z,53.8
2019-05-02T08:47:30.532Z,54
2019-05-02T08:49:57.019Z,54.1
2019-05-02T08:51:29.412Z,54.3
2019-05-02T08:52:19.474Z,54.4
2019-05-02T08:53:09.542Z,54.3
2019-05-02T08:54:00.177Z,54
2019-05-02T08:54:49.934Z,53.8
2019-05-02T08:55:47.704Z,53.8
2019-05-02T08:57:20.116Z,54.1
2019-05-02T08:58:17.006Z,54.6
2019-05-02T08:59:49.776Z,55.2
2019-05-02T09:00:40.873Z,55.3
2019-05-02T09:01:36.788Z,55.4
2019-05-02T09:02:42.062Z,55.5
2019-05-02T09:04:00.601Z,55.7
2019-05-02T09:05:06.631Z,55.9
2019-05-02T09:06:30.803Z,56
2019-05-02T09:07:21.401Z,56.1
2019-05-02T09:08:17.688Z,56.2
2019-05-02T09:09:00.996Z,56.4
2019-05-02T09:09:50.522Z,56.5
2019-05-02T09:10:44.505Z,56.6
2019-05-02T09:11:31.173Z,56.8
2019-05-02T09:12:23.898Z,56.8
2019-05-02T09:13:24.075Z,56.8
2019-05-02T09:14:53.535Z,57
2019-05-02T09:15:54.772Z,57.1
2019-05-02T09:17:52.475Z,57.4
2019-05-02T09:19:03.806Z,57.6
2019-05-02T09:20:20.701Z,57.6
2019-05-02T09:21:37.085Z,57.8
2019-05-02T09:22:23.391Z,57.9
2019-05-02T09:23:13.613Z,57.9
2019-05-02T09:24:08.318Z,58.1
2019-05-02T09:25:44.402Z,58.3
2019-05-02T09:26:39.866Z,58.3
2019-05-02T09:27:23.979Z,58.4
2019-05-02T09:28:25.430Z,58.5
2019-05-02T09:29:53.405Z,58.8
2019-05-02T09:30:43.206Z,58.8
2019-05-02T09:31:45.987Z,58.8
2019-05-02T09:33:13.324Z,58.1
2019-05-02T09:34:04.252Z,57.8
2019-05-02T09:36:33.814Z,58.4
2019-05-02T09:37:24.004Z,58.8
2019-05-02T09:38:17.119Z,59.1
2019-05-02T09:39:03.898Z,59.2
2019-05-02T09:39:54.022Z,59.3
2019-05-02T09:40:56.248Z,59.3
2019-05-02T09:42:22.929Z,58.9
2019-05-02T09:43:13.551Z,59
2019-05-02T09:44:04.382Z,59.3
2019-05-02T09:45:45.463Z,59.8
2019-05-02T09:46:33.831Z,59.9
2019-05-02T09:48:01.457Z,59.9
2019-05-02T09:49:18.091Z,60.1
2019-05-02T09:50:07.284Z,60.1
2019-05-02T09:51:17.297Z,60.2
2019-05-02T09:52:03.745Z,60.4
2019-05-02T09:52:45.251Z,60.4
2019-05-02T09:54:17.031Z,60.7
2019-05-02T09:55:07.379Z,60.8
2019-05-02T09:55:59.523Z,60.8
2019-05-02T09:56:47.500Z,60.9
2019-05-02T09:57:37.836Z,61
2019-05-02T09:58:27.945Z,61.1
2019-05-02T09:59:33.544Z,61.2
2019-05-02T10:00:57.822Z,61.4
2019-05-02T10:01:48.133Z,61.4
2019-05-02T10:02:38.211Z,61.6
2019-05-02T10:03:28.014Z,61.7
2019-05-02T10:05:44.015Z,61.8
2019-05-02T10:06:35.241Z,62
2019-05-02T10:07:23.574Z,62.1
2019-05-02T10:08:15.312Z,62.1
2019-05-02T10:09:04.267Z,62.3
2019-05-02T10:09:57.601Z,62.3
2019-05-02T10:11:33.510Z,62.5
2019-05-02T10:12:24.319Z,62.6
2019-05-02T10:13:13.456Z,62.6
2019-05-02T10:14:03.738Z,62.8
2019-05-02T10:14:54.219Z,62.8
2019-05-02T10:15:43.364Z,62.9
2019-05-02T10:16:32.974Z,63
2019-05-02T10:17:24.589Z,63.1
2019-05-02T10:18:30.113Z,63.2
2019-05-02T10:19:14.430Z,63.3
2019-05-02T10:19:58.365Z,63.4
2019-05-02T10:20:43.508Z,63.4
2019-05-02T10:21:33.377Z,63.5
2019-05-02T10:22:41.779Z,63.6
2019-05-02T10:23:24.089Z,63.7
2019-05-02T10:24:05.196Z,63.8
2019-05-02T10:24:53.241Z,63.8
2019-05-02T10:25:48.149Z,63.9
2019-05-02T10:26:34.317Z,63.9
2019-05-02T10:27:23.275Z,64
2019-05-02T10:28:14.213Z,64.1
2019-05-02T10:29:03.668Z,64.2
2019-05-02T10:29:56.983Z,64.3
2019-05-02T10:31:39.038Z,64.5
2019-05-02T10:32:24.170Z,64.6
2019-05-02T10:33:13.820Z,64.6
2019-05-02T10:34:03.365Z,64.7
2019-05-02T10:34:58.005Z,64.8
2019-05-02T10:35:45.088Z,64.9
2019-05-02T10:36:33.835Z,65
2019-05-02T10:37:23.840Z,65
2019-05-02T10:38:22.506Z,64.8
2019-05-02T10:39:03.962Z,64.3
2019-05-02T10:39:57.361Z,64
2019-05-02T10:40:48.283Z,63.9
2019-05-02T10:41:44.340Z,64.2
2019-05-02T10:42:24.135Z,64.3
2019-05-02T10:43:14.447Z,64.3
2019-05-02T10:44:04.245Z,64.3
2019-05-02T10:44:54.577Z,64.4
2019-05-02T10:45:57.087Z,64.7
2019-05-02T10:47:24.480Z,64.5
2019-05-02T10:48:30.086Z,64.3
2019-05-02T10:49:54.948Z,63.6
2019-05-02T10:50:44.744Z,63.3
2019-05-02T10:51:34.869Z,63.1
2019-05-02T10:52:35.110Z,63
2019-05-02T10:54:05.260Z,62.7
2019-05-02T10:54:55.301Z,62.6
2019-05-02T10:55:44.824Z,62.4
2019-05-02T10:56:35.436Z,62.3
2019-05-02T10:57:24.944Z,62.1
2019-05-02T10:58:15.557Z,62
2019-05-02T10:59:57.644Z,61.8
2019-05-02T11:00:46.934Z,61.7
2019-05-02T11:01:35.804Z,61.6
2019-05-02T11:02:25.870Z,61.4
2019-05-02T11:03:15.924Z,61.3
2019-05-02T11:04:05.999Z,61.3
2019-05-02T11:04:56.058Z,61.1
2019-05-02T11:05:45.858Z,60.8
2019-05-02T11:06:46.881Z,60.5
2019-05-02T11:08:16.288Z,59.7
2019-05-02T11:09:07.969Z,59.3
2019-05-02T11:10:07.438Z,59
2019-05-02T11:11:36.545Z,58.5
2019-05-02T11:12:47.480Z,58.3
2019-05-02T11:14:07.311Z,57.9
2019-05-02T11:14:56.255Z,57.6
2019-05-02T11:15:46.869Z,57.5
2019-05-02T11:16:36.933Z,56.4
2019-05-02T11:17:27.001Z,55.8
2019-05-02T11:18:17.055Z,59.4
2019-05-02T11:19:06.862Z,59.5
2019-05-02T11:19:56.898Z,60
2019-05-02T11:20:46.678Z,60.5
2019-05-02T11:21:37.000Z,60.6
2019-05-02T11:23:17.408Z,60.4
2019-05-02T11:24:07.191Z,60.3
2019-05-02T11:24:57.538Z,60.2
2019-05-02T11:25:47.317Z,60.2
2019-05-02T11:26:37.400Z,60.2
2019-05-02T11:27:27.739Z,60.2
2019-05-02T11:28:17.252Z,60.1
2019-05-02T11:29:07.407Z,60.1
2019-05-02T11:29:57.912Z,59.9
2019-05-02T11:30:47.687Z,59.9
2019-05-02T11:31:37.482Z,59.8
2019-05-02T11:32:28.097Z,59.8
2019-05-02T11:33:17.869Z,59.7
2019-05-02T11:34:07.942Z,59.6
2019-05-02T11:34:58.267Z,59.6
2019-05-02T11:35:54.212Z,59.4
2019-05-02T11:36:38.126Z,59.4
2019-05-02T11:37:28.455Z,59.3
2019-05-02T11:39:12.280Z,59.2
2019-05-02T11:41:04.553Z,58.9
2019-05-02T11:41:54.060Z,58.9
2019-05-02T11:42:44.671Z,58.9
2019-05-02T11:43:45.521Z,58.8
2019-05-02T11:45:14.854Z,58.8
2019-05-02T11:46:08.801Z,58.9
2019-05-02T11:46:54.958Z,58.9
2019-05-02T11:47:45.034Z,58.9
2019-05-02T11:48:35.096Z,58.9
2019-05-02T11:49:24.891Z,58.8
2019-05-02T11:50:14.953Z,58.9
2019-05-02T11:51:16.746Z,59.2
2019-05-02T11:52:01.363Z,59.4
2019-05-02T11:53:35.476Z,59.3
2019-05-02T11:54:28.669Z,59.1
2019-05-02T11:55:24.494Z,58.9
2019-05-02T11:56:13.995Z,58.9
2019-05-02T11:57:45.515Z,59.4
2019-05-02T11:58:35.838Z,59.8
2019-05-02T11:59:32.631Z,60
2019-05-02T12:01:06.981Z,60.3
2019-05-02T12:02:03.729Z,60.4
2019-05-02T12:02:58.538Z,60.6
2019-05-02T12:03:38.409Z,60.8
2019-05-02T12:05:43.413Z,61.3
2019-05-02T12:06:33.588Z,61.5
2019-05-02T12:07:24.042Z,61.6
2019-05-02T12:08:13.797Z,61.5
2019-05-02T12:09:03.601Z,61.3
2019-05-02T12:09:58.324Z,61.1
2019-05-02T12:10:43.541Z,60.9
2019-05-02T12:11:33.392Z,60.7
2019-05-02T12:12:36.339Z,60.4
2019-05-02T12:14:03.299Z,60
2019-05-02T12:14:54.254Z,59.9
2019-05-02T12:15:45.459Z,59.8
2019-05-02T12:16:33.857Z,59.7
2019-05-02T12:17:23.266Z,59.6
2019-05-02T12:18:13.625Z,59.6
2019-05-02T12:19:15.665Z,59.4
2019-05-02T12:20:43.977Z,59.1
2019-05-02T12:21:34.086Z,59
2019-05-02T12:22:23.987Z,59.1
2019-05-02T12:23:14.489Z,59.4
2019-05-02T12:24:03.801Z,59.8
2019-05-02T12:24:53.469Z,60.2
2019-05-02T12:25:43.849Z,60.5
2019-05-02T12:26:33.961Z,60.7
2019-05-02T12:27:23.137Z,60.8
2019-05-02T12:28:13.401Z,60.8
2019-05-02T12:29:04.156Z,60.8
2019-05-02T12:30:01.132Z,60.9
2019-05-02T12:30:43.636Z,61.1
2019-05-02T12:31:34.228Z,61.2
2019-05-02T12:32:24.033Z,61.3
2019-05-02T12:33:13.951Z,61.4
2019-05-02T12:34:04.265Z,61.4
2019-05-02T12:34:53.897Z,61.5
2019-05-02T12:35:44.823Z,61.6
2019-05-02T12:36:34.937Z,61.6
2019-05-02T12:37:23.963Z,61.7
2019-05-02T12:38:14.013Z,61.8
2019-05-02T12:39:04.143Z,61.9
2019-05-02T12:39:54.151Z,61.9
2019-05-02T12:40:43.930Z,62
2019-05-02T12:41:34.721Z,62
2019-05-02T12:42:26.906Z,62.1
2019-05-02T12:43:14.115Z,62.1
2019-05-02T12:44:04.168Z,62.2
2019-05-02T12:44:54.832Z,62.3
2019-05-02T12:45:44.039Z,62.3
2019-05-02T12:46:34.355Z,62.3
2019-05-02T12:47:24.717Z,62.4
2019-05-02T12:48:14.760Z,62.4
2019-05-02T12:49:04.547Z,62.5
2019-05-02T12:49:54.890Z,62.5
2019-05-02T12:50:44.942Z,62.6
2019-05-02T12:51:35.000Z,62.6
2019-05-02T12:52:25.067Z,62.6
2019-05-02T12:53:14.582Z,62.7
2019-05-02T12:54:05.182Z,62.7
2019-05-02T12:54:54.702Z,62.7
2019-05-02T12:55:45.037Z,62.8
2019-05-02T12:56:35.373Z,62.8
2019-05-02T12:57:25.437Z,62.8
2019-05-02T12:58:15.509Z,62.8
2019-05-02T12:59:05.576Z,62.9
2019-05-02T12:59:55.392Z,62.9
2019-05-02T13:00:45.682Z,62.9
2019-05-02T13:01:35.762Z,62.9
2019-05-02T13:02:25.814Z,62.9
2019-05-02T13:03:15.604Z,62.9
2019-05-02T13:04:06.006Z,63
2019-05-02T13:04:55.714Z,63
2019-05-02T13:05:46.059Z,63
2019-05-02T13:06:38.394Z,63
2019-05-02T13:07:25.901Z,63
2019-05-02T13:08:15.979Z,62.9
2019-05-02T13:09:06.312Z,62.8
2019-05-02T13:09:56.356Z,62.8
2019-05-02T13:10:45.883Z,62.9
2019-05-02T13:11:46.503Z,62.9
2019-05-02T13:13:17.769Z,62.6
2019-05-02T13:14:22.311Z,62.2
2019-05-02T13:15:46.527Z,62.1
2019-05-02T13:16:36.886Z,62.3
2019-05-02T13:17:29.973Z,62.4
2019-05-02T13:18:37.499Z,62.6
2019-05-02T13:20:05.243Z,62.7
2019-05-02T13:21:59.288Z,62.6
2019-05-02T13:23:17.101Z,62.6
2019-05-02T13:24:16.876Z,62.6
2019-05-02T13:25:47.560Z,62.6
2019-05-02T13:26:37.600Z,62.6
2019-05-02T13:27:44.111Z,62.6
2019-05-02T13:29:57.853Z,62.5
2019-05-02T13:30:48.236Z,62.5
2019-05-02T13:31:37.693Z,62.4
2019-05-02T13:32:27.753Z,62.4
2019-05-02T13:33:18.100Z,62.4
2019-05-02T13:34:16.000Z,62.4
2019-05-02T13:35:48.299Z,62.3
2019-05-02T13:36:38.358Z,62.3
2019-05-02T13:37:28.407Z,62.3
2019-05-02T13:38:18.472Z,62.2
2019-05-02T13:39:08.530Z,62.1